sim
Sign-in with your pilot id or email,
or register
Callsign
Passwort

Schedule Details

Flight Number: DLH2457 (2)
Departure: Oslo Gardermoen Airport (ENGM) at 05:15
Arrival: Munich Airport (EDDM) at 07:35
Route: Lufthansa Passenger Schedule. Enter filed route here before submitting Pirep.

Weather Information
Getting current METAR information for ENGM 210250Z 20008KT CAVOK 11/10 Q1014
Getting current METAR information for EDDM 210250Z 00000KT CAVOK 08/08 Q1016 NOSIG

Schedule Frequency

Route Map